weather.gov     
National Weather Service

Terminal Aerodrome Forecast
NWS Homepage
This page is being discontinued on March 12, 2014.
The same data is available at this site. Please update your bookmarks.
Thank you, and we apologize for the inconvenience.
Please send an email to SR-SRH.Webmaster@noaa.gov with any concerns.


Current Version
Previous Version:    01  02  03  04  05  06  07  08  09  10  11  12  13  14  15  16  17  18  19  
[Printable]
822
FTUS44 KLIX 021100
TAFNEW
TAF
KNEW 021120Z 0212/0312 15005KT P6SM SCT020
     FM021400 12006KT P6SM SCT030
     FM021600 11008KT P6SM VCTS BKN035CB
      TEMPO 0217/0221 VRB25KT 2SM TSRA BKN028CB
     FM030100 12005KT P6SM SCT050 SCT130=


U.S. Dept. of Commerce
NOAA National Weather Service
1325 East West Highway
Silver Spring, MD 20910
E-mail: w-nws.webmaster@noaa.gov
Page last modified: May 16, 2007
NATIONAL WEATHER SERVICE: for Safety, for Work, for Fun - FOR LIFE